Terminal Aerodrome Forecast
Issued by NWS Charleston, WV

Current Version | Previous Version | Graphics & Text | Print | Product List | Glossary On
Versions: 1 2 3 4 5 6 7 8 9 10 11 12 13 14 15 16 17 18 19 20 21 22 23 24 25 26 27 28 29
000
FTUS41 KRLX 140838 AAA
TAFEKN
TAF AMD
KEKN 140838Z 1409/1506 24012G31KT 6SM -RASN OVC035
     FM141000 27016G34KT 2SM -SHSN BLSN OVC015
     FM141400 28014G27KT P6SM BKN015
     FM141600 30009G19KT P6SM BKN020
     FM150000 30004KT P6SM BKN025=

USA.gov is the U.S. government's official web portal to all federal, state and local government web resources and services.